Time;durP1;ratioP1;P1;durP2;ratioP2;P2;SDS_P1;SDS_P2;PMS_P1;PMS_P2;Temp;Humidity;BMP_temperature;BMP_pressure;BME280_temperature;BME280_humidity;BME280_pressure;Samples;Min_cycle;Max_cycle;Signal;HPM_P1;HPM_P2
2023/11/23 00:02:05;;;;;;;16.40;8.57;;;8.20;54.40;;;;;;5044050;28;20478;-53
2023/11/23 00:04:31;;;;;;;11.23;9.07;;;8.10;54.30;;;;;;5041111;28;20461;-56
2023/11/23 00:06:57;;;;;;;10.70;8.33;;;8.00;54.70;;;;;;5043442;28;20534;-54
2023/11/23 00:09:24;;;;;;;12.53;8.90;;;8.00;54.80;;;;;;5039584;28;20549;-53
2023/11/23 00:11:49;;;;;;;12.43;9.03;;;8.10;54.90;;;;;;5048557;28;20192;-56
2023/11/23 00:14:15;;;;;;;10.63;8.00;;;8.00;54.80;;;;;;5038069;28;20443;-54
2023/11/23 00:16:43;;;;;;;12.07;9.30;;;8.00;54.90;;;;;;5036524;28;20254;-52
2023/11/23 00:19:10;;;;;;;14.13;8.63;;;8.00;54.90;;;;;;5038194;28;20531;-50
2023/11/23 00:21:35;;;;;;;11.60;9.30;;;8.00;55.00;;;;;;5038862;28;20557;-52
2023/11/23 00:24:01;;;;;;;8.50;7.60;;;7.90;55.00;;;;;;5040121;28;20496;-49
2023/11/23 00:26:27;;;;;;;9.33;7.60;;;7.80;55.40;;;;;;5038271;28;20201;-55
2023/11/23 00:28:52;;;;;;;12.93;7.80;;;7.80;55.50;;;;;;5043145;28;20467;-52
2023/11/23 00:31:18;;;;;;;13.63;8.13;;;7.80;55.30;;;;;;5035477;28;20234;-53
2023/11/23 00:33:43;;;;;;;10.67;7.93;;;7.90;55.40;;;;;;5035087;28;20652;-52
2023/11/23 00:36:09;;;;;;;10.03;7.67;;;7.50;55.50;;;;;;5034423;28;20209;-51
2023/11/23 00:38:35;;;;;;;9.30;8.20;;;7.50;56.10;;;;;;5040308;28;20233;-51
2023/11/23 00:41:01;;;;;;;9.50;7.70;;;7.50;56.30;;;;;;5035499;28;21176;-50
2023/11/23 00:43:26;;;;;;;9.87;7.80;;;7.60;56.20;;;;;;5035094;28;20209;-52
2023/11/23 00:45:52;;;;;;;9.90;8.43;;;7.60;56.10;;;;;;5037348;28;20431;-56
2023/11/23 00:48:17;;;;;;;10.13;7.33;;;7.50;56.30;;;;;;5036466;28;20232;-55
2023/11/23 00:50:43;;;;;;;9.47;8.37;;;7.60;56.20;;;;;;5037699;28;20668;-53
2023/11/23 00:53:08;;;;;;;10.87;8.50;;;7.60;56.60;;;;;;5035504;28;20336;-52
2023/11/23 00:55:36;;;;;;;13.17;8.80;;;7.70;56.00;;;;;;5047193;28;20211;-54
2023/11/23 00:58:02;;;;;;;11.60;9.30;;;7.70;56.00;;;;;;5041682;28;20184;-52
2023/11/23 01:00:28;;;;;;;13.97;10.10;;;7.70;55.90;;;;;;5038317;28;20488;-50
2023/11/23 01:02:54;;;;;;;11.20;9.67;;;7.80;55.90;;;;;;5038788;28;20185;-49
2023/11/23 01:05:19;;;;;;;11.20;8.90;;;7.80;55.90;;;;;;5040136;28;20452;-53
2023/11/23 01:07:45;;;;;;;12.60;9.90;;;7.80;55.90;;;;;;5041966;28;20180;-51
2023/11/23 01:10:11;;;;;;;11.27;10.07;;;7.80;55.90;;;;;;5038989;28;20254;-52
2023/11/23 01:12:36;;;;;;;12.37;10.30;;;7.80;55.90;;;;;;5042763;28;20196;-51
2023/11/23 01:15:02;;;;;;;11.43;9.13;;;7.80;56.00;;;;;;5045660;28;20181;-51
2023/11/23 01:17:28;;;;;;;10.57;9.30;;;7.80;56.10;;;;;;5042122;28;20192;-53
2023/11/23 01:19:53;;;;;;;10.50;8.57;;;7.70;56.00;;;;;;5039090;28;20472;-50
2023/11/23 01:22:19;;;;;;;12.37;8.93;;;7.70;56.20;;;;;;5037107;28;20668;-49
2023/11/23 01:24:44;;;;;;;11.30;8.67;;;7.70;56.30;;;;;;5038557;28;20727;-50
2023/11/23 01:27:10;;;;;;;14.00;9.13;;;7.70;56.40;;;;;;5039073;28;20553;-55
2023/11/23 01:29:36;;;;;;;10.87;9.33;;;7.70;56.50;;;;;;5035825;28;20701;-53
2023/11/23 01:32:01;;;;;;;9.93;8.87;;;7.70;56.50;;;;;;5036426;28;20188;-50
2023/11/23 01:34:27;;;;;;;12.10;8.47;;;7.80;56.30;;;;;;5042005;28;20214;-50
2023/11/23 01:36:52;;;;;;;10.90;9.80;;;7.80;56.10;;;;;;5035912;28;20263;-53
2023/11/23 01:39:18;;;;;;;11.33;10.07;;;7.80;56.10;;;;;;5038193;28;20282;-51
2023/11/23 01:41:44;;;;;;;11.97;9.73;;;7.70;56.10;;;;;;5032649;28;20188;-49
2023/11/23 01:44:11;;;;;;;15.47;10.37;;;7.70;56.20;;;;;;5035526;28;20184;-51
2023/11/23 01:46:37;;;;;;;13.53;10.30;;;7.70;56.30;;;;;;5036845;28;20577;-53
2023/11/23 01:49:03;;;;;;;11.83;10.63;;;7.70;56.30;;;;;;5035406;28;20456;-52
2023/11/23 01:51:30;;;;;;;12.03;10.07;;;7.70;56.40;;;;;;5032772;28;20890;-53
2023/11/23 01:53:57;;;;;;;11.80;9.13;;;7.70;56.40;;;;;;5030818;28;20447;-50
2023/11/23 01:56:25;;;;;;;10.50;9.30;;;7.70;56.40;;;;;;5032470;28;20513;-52
2023/11/23 01:58:52;;;;;;;13.90;9.60;;;7.70;56.60;;;;;;5036348;28;21089;-51
2023/11/23 02:01:18;;;;;;;10.30;8.90;;;7.70;56.60;;;;;;5033133;28;20488;-52
2023/11/23 02:03:44;;;;;;;14.20;9.83;;;7.80;56.70;;;;;;5040661;28;20526;-49
2023/11/23 02:06:10;;;;;;;10.63;9.23;;;7.80;56.70;;;;;;5039731;28;20459;-54
2023/11/23 02:08:36;;;;;;;12.00;9.40;;;7.80;56.70;;;;;;5037290;28;21052;-51
2023/11/23 02:11:01;;;;;;;13.93;9.27;;;7.80;56.70;;;;;;5037452;28;20185;-49
2023/11/23 02:13:30;;;;;;;9.90;8.90;;;7.80;56.40;;;;;;5039191;28;20178;-49
2023/11/23 02:15:56;;;;;;;10.03;8.80;;;7.80;56.40;;;;;;5043917;28;20648;-49
2023/11/23 02:18:21;;;;;;;13.10;9.07;;;7.70;56.40;;;;;;5041779;28;20457;-49
2023/11/23 02:20:47;;;;;;;10.33;8.00;;;7.60;56.40;;;;;;5038547;28;20240;-52
2023/11/23 02:23:12;;;;;;;13.70;8.23;;;7.50;56.80;;;;;;5046320;28;20188;-50
2023/11/23 02:25:38;;;;;;;10.23;8.70;;;7.50;57.00;;;;;;5043234;28;20197;-49
2023/11/23 02:28:06;;;;;;;11.43;7.80;;;7.50;56.90;;;;;;5044848;28;20958;-50
2023/11/23 02:30:32;;;;;;;11.03;8.87;;;7.40;57.00;;;;;;5032429;28;20243;-56
2023/11/23 02:33:01;;;;;;;12.87;8.80;;;7.20;57.50;;;;;;5033425;28;20471;-50
2023/11/23 02:35:26;;;;;;;10.90;8.50;;;7.20;57.50;;;;;;5036197;28;20182;-49
2023/11/23 02:37:52;;;;;;;14.77;10.33;;;7.40;57.40;;;;;;5032174;28;20497;-51
2023/11/23 02:40:18;;;;;;;12.90;9.80;;;7.40;57.00;;;;;;5035140;28;20223;-49
2023/11/23 02:42:44;;;;;;;11.90;9.00;;;7.50;56.80;;;;;;5033866;28;20181;-51
2023/11/23 02:45:10;;;;;;;11.20;9.33;;;7.50;56.60;;;;;;5037054;28;20212;-53
2023/11/23 02:47:36;;;;;;;12.63;9.40;;;7.50;56.50;;;;;;5035049;28;20430;-49
2023/11/23 02:50:04;;;;;;;11.80;9.27;;;7.40;56.50;;;;;;5035060;28;20539;-50
2023/11/23 02:52:30;;;;;;;11.60;9.43;;;7.40;56.50;;;;;;5038015;28;21097;-50
2023/11/23 02:54:56;;;;;;;12.43;9.93;;;7.50;56.50;;;;;;5037646;28;20483;-52
2023/11/23 02:57:21;;;;;;;12.00;9.17;;;7.50;56.30;;;;;;5038106;28;20475;-52
2023/11/23 02:59:49;;;;;;;13.97;10.17;;;7.50;56.20;;;;;;5034283;28;20270;-52
2023/11/23 03:02:14;;;;;;;16.97;10.43;;;7.50;56.20;;;;;;5043092;28;20177;-53
2023/11/23 03:04:40;;;;;;;12.07;9.70;;;7.40;56.30;;;;;;5040278;28;20820;-52
2023/11/23 03:07:05;;;;;;;13.03;10.13;;;7.40;56.50;;;;;;5039347;28;20308;-51
2023/11/23 03:09:32;;;;;;;11.43;9.40;;;7.40;56.40;;;;;;5033109;28;20216;-50
2023/11/23 03:11:59;;;;;;;14.00;9.40;;;7.50;56.30;;;;;;5036181;28;20591;-51
2023/11/23 03:14:25;;;;;;;13.10;9.47;;;7.50;56.10;;;;;;5034681;28;20509;-49
2023/11/23 03:16:51;;;;;;;12.70;9.80;;;7.50;56.00;;;;;;5040834;28;20983;-48
2023/11/23 03:19:17;;;;;;;18.80;11.27;;;7.50;56.10;;;;;;5034790;28;20560;-53
2023/11/23 03:21:42;;;;;;;13.33;10.10;;;7.50;56.10;;;;;;5033316;28;20454;-49
2023/11/23 03:24:08;;;;;;;13.93;10.70;;;7.50;56.10;;;;;;5033632;28;20603;-49
2023/11/23 03:26:34;;;;;;;12.23;10.53;;;7.50;56.00;;;;;;5039458;28;20255;-55
2023/11/23 03:28:59;;;;;;;11.30;8.60;;;7.60;56.10;;;;;;5033492;28;21000;-53
2023/11/23 03:31:25;;;;;;;13.50;10.57;;;7.60;55.90;;;;;;5031449;28;20248;-50
2023/11/23 03:33:50;;;;;;;12.53;9.80;;;7.50;55.70;;;;;;5030955;28;20173;-55
2023/11/23 03:36:16;;;;;;;14.57;9.77;;;7.50;55.80;;;;;;5031708;28;20182;-54
2023/11/23 03:38:42;;;;;;;13.27;9.63;;;7.50;55.90;;;;;;5033351;28;20282;-51
2023/11/23 03:41:07;;;;;;;14.83;10.43;;;7.50;55.90;;;;;;5031883;28;20196;-50
2023/11/23 03:43:33;;;;;;;12.33;9.87;;;7.50;56.10;;;;;;5043564;28;20450;-50
2023/11/23 03:45:58;;;;;;;13.03;11.33;;;7.50;56.00;;;;;;5037218;28;20645;-52
2023/11/23 03:48:24;;;;;;;13.00;9.67;;;7.60;55.90;;;;;;5036423;28;20347;-53
2023/11/23 03:50:50;;;;;;;13.17;9.63;;;7.60;55.80;;;;;;5039516;28;20189;-53
2023/11/23 03:53:15;;;;;;;14.23;9.90;;;7.60;55.70;;;;;;5034304;28;20312;-54
2023/11/23 03:55:41;;;;;;;11.63;10.37;;;7.60;55.70;;;;;;5030511;28;20199;-53
2023/11/23 03:58:06;;;;;;;13.40;10.07;;;7.60;55.70;;;;;;5035010;28;20193;-56
2023/11/23 04:00:32;;;;;;;13.57;10.63;;;7.60;55.60;;;;;;5035536;28;20217;-56
2023/11/23 04:02:58;;;;;;;13.10;9.63;;;7.50;55.60;;;;;;5033204;28;20182;-49
2023/11/23 04:05:25;;;;;;;13.10;10.47;;;7.50;55.80;;;;;;5040510;28;20177;-50
2023/11/23 04:07:50;;;;;;;11.63;9.50;;;7.50;55.90;;;;;;5043712;28;20601;-53
2023/11/23 04:10:16;;;;;;;10.83;9.37;;;7.40;55.90;;;;;;5049289;28;20463;-54
2023/11/23 04:12:42;;;;;;;13.43;10.00;;;7.40;56.10;;;;;;5048414;28;20196;-53
2023/11/23 04:15:09;;;;;;;11.97;9.27;;;7.40;56.20;;;;;;5045847;28;20181;-53
2023/11/23 04:17:35;;;;;;;11.23;9.33;;;7.40;56.20;;;;;;5040395;28;20181;-50
2023/11/23 04:20:01;;;;;;;12.03;9.57;;;7.30;56.20;;;;;;5049260;28;20892;-50
2023/11/23 04:22:27;;;;;;;12.40;9.97;;;7.30;56.30;;;;;;5046723;28;20180;-52
2023/11/23 04:24:52;;;;;;;13.10;8.97;;;7.30;56.40;;;;;;5041917;28;20452;-53
2023/11/23 04:27:18;;;;;;;12.33;10.20;;;7.30;56.40;;;;;;5035024;28;20251;-49
2023/11/23 04:29:44;;;;;;;11.87;8.83;;;7.20;56.50;;;;;;5041706;28;20209;-49
2023/11/23 04:32:13;;;;;;;16.30;9.43;;;7.20;56.80;;;;;;5043975;28;21019;-51
2023/11/23 04:34:38;;;;;;;16.13;9.67;;;7.20;57.00;;;;;;5040534;28;20181;-49
2023/11/23 04:37:04;;;;;;;12.13;9.23;;;7.20;57.00;;;;;;5037073;28;21050;-52
2023/11/23 04:39:30;;;;;;;13.10;9.53;;;7.30;56.80;;;;;;5033911;28;20296;-52
2023/11/23 04:41:56;;;;;;;10.77;8.70;;;7.30;56.90;;;;;;5037751;28;20525;-51
2023/11/23 04:44:22;;;;;;;13.00;9.30;;;7.30;56.70;;;;;;5033413;28;20505;-56
2023/11/23 04:46:48;;;;;;;12.23;9.47;;;7.30;56.70;;;;;;5038389;28;20238;-49
2023/11/23 04:49:13;;;;;;;12.57;8.87;;;7.40;56.80;;;;;;5034872;28;20263;-50
2023/11/23 04:51:40;;;;;;;12.63;9.00;;;7.40;56.60;;;;;;5035325;28;20444;-52
2023/11/23 04:54:05;;;;;;;14.40;10.30;;;7.30;56.80;;;;;;5041674;28;20193;-54
2023/11/23 04:56:31;;;;;;;13.47;10.07;;;7.30;56.80;;;;;;5042672;28;20801;-52
2023/11/23 04:58:57;;;;;;;12.50;9.57;;;7.30;56.90;;;;;;5038134;28;20284;-52
2023/11/23 05:01:23;;;;;;;13.57;10.37;;;7.40;56.80;;;;;;5042800;28;21021;-53
2023/11/23 05:03:48;;;;;;;14.80;10.07;;;7.40;56.60;;;;;;5047261;28;20276;-50
2023/11/23 05:06:15;;;;;;;13.67;10.33;;;7.40;56.50;;;;;;5040427;28;20656;-53
2023/11/23 05:08:41;;;;;;;11.97;9.37;;;7.40;56.50;;;;;;5035402;28;20205;-53
2023/11/23 05:11:07;;;;;;;13.57;8.20;;;7.40;56.40;;;;;;5034735;28;20448;-53
2023/11/23 05:13:33;;;;;;;11.47;9.00;;;7.40;56.30;;;;;;5041074;28;20822;-55
2023/11/23 05:15:59;;;;;;;12.80;9.10;;;7.40;56.30;;;;;;5037251;28;20197;-54
2023/11/23 05:18:25;;;;;;;10.63;8.90;;;7.40;56.40;;;;;;5042139;28;20451;-54
2023/11/23 05:20:51;;;;;;;12.03;8.73;;;7.40;56.30;;;;;;5044429;28;20752;-54
2023/11/23 05:23:16;;;;;;;13.20;9.00;;;7.40;56.30;;;;;;5040527;28;20209;-53
2023/11/23 05:25:42;;;;;;;11.30;8.70;;;7.40;56.50;;;;;;5033419;28;20215;-50
2023/11/23 05:28:08;;;;;;;12.20;9.10;;;7.40;56.50;;;;;;5038721;28;20246;-52
2023/11/23 05:30:33;;;;;;;12.20;9.47;;;7.30;56.30;;;;;;5039564;28;20180;-52
2023/11/23 05:33:00;;;;;;;11.03;8.90;;;7.30;56.20;;;;;;5038318;28;20441;-51
2023/11/23 05:35:26;;;;;;;13.73;9.73;;;7.40;56.30;;;;;;5035843;28;20262;-55
2023/11/23 05:37:52;;;;;;;17.17;10.97;;;7.40;56.20;;;;;;5038664;28;20439;-54
2023/11/23 05:40:18;;;;;;;15.17;10.93;;;7.40;56.20;;;;;;5034517;28;20545;-52
2023/11/23 05:42:43;;;;;;;18.70;12.43;;;7.40;56.00;;;;;;5036304;28;20215;-51
2023/11/23 05:45:10;;;;;;;19.90;13.43;;;7.40;56.00;;;;;;5042439;28;20185;-53
2023/11/23 05:47:35;;;;;;;14.93;12.10;;;7.40;55.90;;;;;;5044428;28;20185;-55
2023/11/23 05:50:02;;;;;;;13.23;10.50;;;7.30;56.00;;;;;;5041928;28;20965;-50
2023/11/23 05:52:29;;;;;;;12.67;9.40;;;7.30;56.00;;;;;;5038448;28;20173;-52
2023/11/23 05:54:55;;;;;;;12.07;9.40;;;7.40;56.00;;;;;;5042499;28;20453;-52
2023/11/23 05:57:23;;;;;;;13.43;9.83;;;7.30;56.10;;;;;;5043407;28;20530;-50
2023/11/23 05:59:49;;;;;;;12.90;9.60;;;7.30;56.40;;;;;;5035032;28;20902;-50
2023/11/23 06:02:15;;;;;;;9.60;7.93;;;7.20;56.50;;;;;;5044172;28;20443;-49
2023/11/23 06:04:47;;;;;;;11.67;8.60;;;7.20;56.50;;;;;;5035098;28;20539;-54
2023/11/23 06:07:13;;;;;;;10.10;7.63;;;7.20;56.70;;;;;;5038806;28;20181;-53
2023/11/23 06:09:39;;;;;;;9.43;7.87;;;7.10;57.10;;;;;;5038398;28;20457;-50
2023/11/23 06:12:05;;;;;;;10.93;8.13;;;7.10;57.30;;;;;;5036819;28;20476;-53
2023/11/23 06:14:31;;;;;;;9.90;7.13;;;7.10;57.50;;;;;;5036902;28;20459;-51
2023/11/23 06:16:57;;;;;;;12.37;8.80;;;7.40;58.40;;;;;;5038422;28;20428;-52
2023/11/23 06:19:23;;;;;;;11.90;8.53;;;7.60;59.60;;;;;;5040652;28;21004;-54
2023/11/23 06:21:49;;;;;;;9.90;7.73;;;7.90;58.00;;;;;;5030142;28;20434;-53
2023/11/23 06:24:15;;;;;;;10.60;8.50;;;8.10;57.20;;;;;;5033964;28;20189;-55
2023/11/23 06:26:41;;;;;;;9.20;7.47;;;8.30;57.40;;;;;;5031596;28;20804;-54
2023/11/23 06:29:06;;;;;;;10.60;7.40;;;8.50;57.20;;;;;;5037922;28;20216;-53
2023/11/23 06:31:34;;;;;;;11.13;8.10;;;8.70;56.50;;;;;;5033897;28;20185;-53
2023/11/23 06:33:59;;;;;;;10.60;7.83;;;8.80;55.70;;;;;;5036606;28;20184;-52
2023/11/23 06:36:25;;;;;;;11.33;8.47;;;8.90;56.00;;;;;;5038703;28;20435;-54
2023/11/23 06:38:51;;;;;;;10.33;7.40;;;8.80;56.20;;;;;;5035709;28;20208;-53
2023/11/23 06:41:21;;;;;;;10.73;8.23;;;8.80;56.50;;;;;;5027803;28;20196;-51
2023/11/23 06:43:51;;;;;;;11.90;8.00;;;8.90;55.90;;;;;;5040655;28;20193;-50
2023/11/23 06:46:17;;;;;;;9.63;8.13;;;9.00;55.50;;;;;;5042749;28;20510;-50
2023/11/23 06:48:44;;;;;;;14.00;7.87;;;9.10;55.60;;;;;;5041709;28;20538;-51
2023/11/23 06:51:10;;;;;;;9.83;7.63;;;9.10;55.30;;;;;;5033873;28;20456;-51
2023/11/23 06:53:43;;;;;;;11.77;8.03;;;9.10;55.00;;;;;;5038287;28;20810;-50
2023/11/23 06:56:12;;;;;;;11.47;8.63;;;9.20;54.20;;;;;;5039306;28;20468;-53
2023/11/23 06:58:41;;;;;;;8.77;7.10;;;9.20;54.50;;;;;;5035393;28;20551;-52
2023/11/23 07:01:10;;;;;;;8.63;7.57;;;9.20;54.40;;;;;;5031956;28;20491;-51
2023/11/23 07:03:37;;;;;;;10.53;7.93;;;9.30;53.70;;;;;;5030550;28;20451;-51
2023/11/23 07:06:03;;;;;;;9.23;7.30;;;9.30;53.20;;;;;;5030765;28;20846;-51
2023/11/23 07:08:29;;;;;;;9.10;7.90;;;9.30;53.30;;;;;;5033307;28;20463;-53
2023/11/23 07:10:54;;;;;;;9.83;7.83;;;9.80;53.70;;;;;;5028976;28;20513;-56
2023/11/23 07:13:20;;;;;;;8.90;7.20;;;10.50;51.70;;;;;;5025213;28;20185;-53
2023/11/23 07:15:46;;;;;;;10.97;7.70;;;11.50;49.60;;;;;;5034770;28;20191;-56
2023/11/23 07:18:13;;;;;;;8.33;7.00;;;12.60;47.30;;;;;;5035839;28;20185;-50
2023/11/23 07:20:38;;;;;;;9.87;7.17;;;12.90;44.60;;;;;;5036603;28;20474;-49
2023/11/23 07:23:04;;;;;;;8.43;7.50;;;13.50;44.40;;;;;;5043708;28;20534;-53
2023/11/23 07:25:31;;;;;;;8.00;7.17;;;14.10;43.30;;;;;;5046646;28;21005;-50
2023/11/23 07:27:57;;;;;;;7.20;6.50;;;14.10;42.50;;;;;;5045195;28;20774;-52
2023/11/23 07:30:23;;;;;;;7.17;6.47;;;14.00;42.40;;;;;;5037752;28;20463;-52
2023/11/23 07:32:48;;;;;;;11.23;7.07;;;14.00;42.80;;;;;;5036378;28;20200;-50
2023/11/23 07:35:14;;;;;;;11.40;6.77;;;14.30;43.00;;;;;;5039822;28;20195;-54
2023/11/23 07:37:40;;;;;;;10.13;7.00;;;14.70;42.20;;;;;;5049525;28;20652;-55
2023/11/23 07:40:12;;;;;;;8.77;7.30;;;15.10;41.30;;;;;;5038905;28;20575;-55
2023/11/23 07:42:40;;;;;;;6.87;6.17;;;15.40;40.60;;;;;;5044160;28;20862;-55
2023/11/23 07:45:06;;;;;;;9.80;7.00;;;15.60;40.60;;;;;;5042118;28;20510;-51
2023/11/23 07:47:32;;;;;;;6.30;5.70;;;15.40;40.50;;;;;;5043574;28;20450;-50
2023/11/23 07:49:59;;;;;;;7.10;6.40;;;15.40;40.50;;;;;;5040129;28;20508;-54
2023/11/23 07:52:25;;;;;;;7.03;6.10;;;15.10;41.00;;;;;;5045415;28;20197;-53
2023/11/23 07:54:50;;;;;;;6.30;5.70;;;14.50;40.50;;;;;;5037886;28;20451;-54
2023/11/23 07:57:16;;;;;;;7.00;6.27;;;13.20;43.50;;;;;;5041640;28;20189;-54
2023/11/23 07:59:45;;;;;;;8.37;6.50;;;12.80;44.60;;;;;;5049370;28;20578;-50
2023/11/23 08:02:10;;;;;;;7.67;6.40;;;12.20;45.30;;;;;;5046285;28;20185;-57
2023/11/23 08:04:36;;;;;;;7.67;6.40;;;11.90;46.30;;;;;;5044908;28;20970;-54
2023/11/23 08:07:01;;;;;;;6.67;6.07;;;11.70;47.00;;;;;;5040383;28;20182;-55
2023/11/23 08:09:27;;;;;;;7.00;6.17;;;11.20;48.00;;;;;;5031095;28;20573;-49
2023/11/23 08:11:55;;;;;;;9.60;6.87;;;10.50;48.90;;;;;;5029976;28;20393;-54
2023/11/23 08:14:21;;;;;;;9.17;6.90;;;9.90;51.40;;;;;;5038538;28;20580;-51
2023/11/23 08:16:47;;;;;;;7.80;6.57;;;9.70;51.80;;;;;;5030106;28;20447;-51
2023/11/23 08:19:14;;;;;;;8.97;6.10;;;9.70;52.40;;;;;;5032907;28;20278;-51
2023/11/23 08:21:40;;;;;;;6.53;5.80;;;9.70;52.90;;;;;;5033264;28;20192;-54
2023/11/23 08:24:07;;;;;;;10.03;5.87;;;9.60;52.80;;;;;;5036532;28;20443;-56
2023/11/23 08:26:32;;;;;;;7.00;5.67;;;9.60;53.40;;;;;;5036112;28;20439;-54
2023/11/23 08:28:58;;;;;;;9.57;6.10;;;9.50;53.30;;;;;;5037423;28;20836;-52
2023/11/23 08:31:28;;;;;;;6.67;5.57;;;9.60;53.90;;;;;;5036764;28;20188;-53
2023/11/23 08:33:55;;;;;;;7.37;5.70;;;9.50;53.40;;;;;;5035152;28;20550;-53
2023/11/23 08:36:21;;;;;;;6.10;5.40;;;9.20;54.30;;;;;;5038321;28;20546;-50
2023/11/23 08:38:47;;;;;;;9.23;6.50;;;9.30;54.80;;;;;;5040791;28;20538;-49
2023/11/23 08:41:12;;;;;;;6.87;6.00;;;9.30;54.60;;;;;;5033480;28;20476;-49
2023/11/23 08:43:38;;;;;;;8.53;6.10;;;8.90;54.90;;;;;;5032700;28;20185;-50
2023/11/23 08:46:04;;;;;;;7.73;5.80;;;8.90;55.90;;;;;;5031605;28;20330;-50
2023/11/23 08:48:30;;;;;;;7.10;6.30;;;9.00;55.20;;;;;;5033208;28;20213;-54
2023/11/23 08:50:57;;;;;;;9.70;5.50;;;9.30;55.70;;;;;;5033168;28;20482;-52
2023/11/23 08:53:24;;;;;;;6.53;5.00;;;9.70;55.20;;;;;;5038549;28;20185;-53
2023/11/23 08:55:51;;;;;;;6.40;5.23;;;9.90;54.30;;;;;;5035805;28;20909;-52
2023/11/23 08:58:17;;;;;;;6.90;4.90;;;9.80;53.60;;;;;;5038499;28;20795;-51
2023/11/23 09:00:42;;;;;;;8.70;5.07;;;9.60;54.10;;;;;;5033705;28;20479;-52
2023/11/23 09:03:09;;;;;;;6.27;5.67;;;9.90;54.60;;;;;;5034613;28;20205;-52
2023/11/23 09:05:35;;;;;;;6.60;5.10;;;10.10;53.40;;;;;;5039106;28;20766;-52
2023/11/23 09:08:06;;;;;;;5.50;4.90;;;10.10;52.80;;;;;;5031557;28;20539;-50
2023/11/23 09:10:35;;;;;;;4.80;4.20;;;10.40;53.00;;;;;;5034352;28;20217;-54
2023/11/23 09:13:01;;;;;;;5.30;4.70;;;10.50;52.30;;;;;;5034806;28;20456;-49
2023/11/23 09:15:33;;;;;;;9.30;4.87;;;10.70;52.20;;;;;;5034181;28;20447;-51
2023/11/23 09:17:59;;;;;;;11.50;4.70;;;11.00;52.00;;;;;;5035279;28;20448;-50
2023/11/23 09:20:24;;;;;;;7.03;4.67;;;11.10;51.70;;;;;;5031295;28;20490;-52
2023/11/23 09:22:50;;;;;;;5.50;4.07;;;11.00;51.40;;;;;;5038799;28;20199;-51
2023/11/23 09:25:16;;;;;;;4.93;4.30;;;11.10;51.70;;;;;;5038592;28;20188;-53
2023/11/23 09:27:43;;;;;;;5.33;4.60;;;11.10;52.10;;;;;;5038054;28;20965;-52
2023/11/23 09:30:09;;;;;;;4.93;4.27;;;10.90;51.70;;;;;;5036144;28;20965;-53
2023/11/23 09:32:38;;;;;;;4.47;3.80;;;11.00;52.00;;;;;;5032451;28;20443;-53
2023/11/23 09:35:10;;;;;;;3.83;3.53;;;11.10;51.50;;;;;;5036934;28;20438;-52
2023/11/23 09:37:37;;;;;;;6.03;4.80;;;10.80;52.10;;;;;;5033790;28;20439;-49
2023/11/23 09:40:06;;;;;;;5.07;3.80;;;10.60;52.40;;;;;;5031915;28;21194;-54
2023/11/23 09:42:35;;;;;;;7.40;4.37;;;10.40;53.10;;;;;;5036439;28;20466;-50
2023/11/23 09:45:02;;;;;;;4.50;4.10;;;10.50;52.80;;;;;;5034199;28;20790;-49
2023/11/23 09:47:32;;;;;;;5.37;4.20;;;10.30;53.20;;;;;;5032172;28;20446;-49
2023/11/23 09:49:59;;;;;;;3.93;3.53;;;10.50;53.60;;;;;;5033071;28;21100;-51
2023/11/23 09:52:31;;;;;;;4.10;3.70;;;10.60;53.10;;;;;;5032103;28;20448;-50
2023/11/23 09:54:57;;;;;;;4.53;4.13;;;10.80;53.00;;;;;;5036822;28;20447;-54
2023/11/23 09:57:23;;;;;;;9.30;4.70;;;10.70;53.00;;;;;;5035654;28;20582;-55
2023/11/23 09:59:49;;;;;;;4.03;3.57;;;10.70;53.10;;;;;;5033676;28;20499;-51
2023/11/23 10:02:21;;;;;;;5.17;4.13;;;10.70;53.40;;;;;;5032248;28;20450;-49
2023/11/23 10:04:49;;;;;;;4.60;4.20;;;10.80;53.50;;;;;;5035689;28;20523;-51
2023/11/23 10:07:16;;;;;;;4.37;3.80;;;10.90;53.50;;;;;;5030875;28;20863;-54
2023/11/23 10:09:42;;;;;;;5.93;4.13;;;10.80;53.40;;;;;;5035200;28;20474;-50
2023/11/23 10:12:08;;;;;;;5.43;4.03;;;10.90;53.50;;;;;;5034526;28;20424;-50
2023/11/23 10:14:33;;;;;;;4.50;4.07;;;10.80;53.70;;;;;;5040632;28;20466;-52
2023/11/23 10:16:59;;;;;;;4.27;3.80;;;10.70;53.50;;;;;;5033858;28;20263;-52
2023/11/23 10:19:25;;;;;;;5.50;4.40;;;10.80;54.40;;;;;;5034945;28;20304;-54
2023/11/23 10:22:03;;;;;;;4.00;3.60;;;11.00;54.00;;;;;;5029971;28;20185;-49
2023/11/23 10:24:29;;;;;;;4.40;3.60;;;11.00;53.80;;;;;;5032995;28;20204;-49
2023/11/23 10:26:55;;;;;;;4.67;4.00;;;11.30;53.80;;;;;;5035716;28;21033;-54
2023/11/23 10:29:28;;;;;;;3.93;3.63;;;11.40;54.00;;;;;;5036978;28;21077;-48
2023/11/23 10:31:59;;;;;;;3.83;3.53;;;11.50;53.40;;;;;;5034738;28;20447;-53
2023/11/23 10:34:28;;;;;;;5.20;4.30;;;11.60;53.10;;;;;;5033140;28;21041;-49
2023/11/23 10:36:54;;;;;;;4.33;3.93;;;11.70;53.20;;;;;;5040253;28;20426;-49
2023/11/23 10:39:22;;;;;;;5.40;4.50;;;11.70;53.30;;;;;;5038445;28;20478;-51
2023/11/23 10:41:49;;;;;;;5.20;3.90;;;11.80;53.10;;;;;;5033850;28;20892;-49
2023/11/23 10:44:15;;;;;;;4.70;4.17;;;11.80;53.00;;;;;;5034678;28;20467;-52
2023/11/23 10:46:42;;;;;;;6.03;4.30;;;11.90;53.10;;;;;;5033790;28;20966;-55
2023/11/23 10:49:08;;;;;;;7.50;3.13;;;12.10;52.80;;;;;;5036025;28;20470;-54
2023/11/23 10:51:34;;;;;;;4.27;3.87;;;12.20;52.80;;;;;;5032787;28;20457;-50
2023/11/23 10:54:01;;;;;;;5.90;3.93;;;12.30;52.50;;;;;;5036915;28;20185;-51
2023/11/23 10:56:29;;;;;;;3.80;3.50;;;12.30;52.30;;;;;;5035687;28;21001;-50
2023/11/23 10:59:01;;;;;;;5.30;3.47;;;12.40;52.30;;;;;;5036230;28;20850;-50
2023/11/23 11:01:29;;;;;;;4.97;3.53;;;12.40;52.30;;;;;;5040560;28;20859;-49
2023/11/23 11:03:55;;;;;;;4.20;3.80;;;12.50;52.20;;;;;;5039956;28;20463;-49
2023/11/23 11:06:22;;;;;;;8.73;4.37;;;12.50;52.30;;;;;;5037426;28;20446;-50
2023/11/23 11:08:50;;;;;;;2.90;2.70;;;12.40;52.00;;;;;;5038431;28;20493;-49
2023/11/23 11:11:23;;;;;;;7.03;3.83;;;12.30;52.30;;;;;;5035732;28;20510;-51
2023/11/23 11:13:49;;;;;;;3.60;3.30;;;12.20;52.40;;;;;;5049390;28;20439;-49
2023/11/23 11:16:17;;;;;;;6.10;3.23;;;12.20;52.40;;;;;;5049028;28;20538;-52
2023/11/23 11:18:52;;;;;;;4.10;3.70;;;12.10;52.80;;;;;;5041234;28;20500;-49
2023/11/23 11:21:23;;;;;;;4.13;3.73;;;12.10;52.60;;;;;;5042357;28;20477;-53
2023/11/23 11:23:54;;;;;;;4.23;3.00;;;12.30;52.70;;;;;;5046723;28;20461;-49
2023/11/23 11:26:30;;;;;;;4.80;3.10;;;12.40;52.80;;;;;;5042318;28;20452;-55
2023/11/23 11:28:58;;;;;;;4.10;3.30;;;12.50;53.00;;;;;;5039446;28;20459;-51
2023/11/23 11:31:33;;;;;;;3.50;3.17;;;12.70;53.10;;;;;;5042823;28;20946;-50
2023/11/23 11:34:25;;;;;;;5.00;3.40;;;12.80;52.60;;;;;;5047533;28;20430;-52
2023/11/23 11:36:55;;;;;;;3.97;3.03;;;12.80;52.50;;;;;;5036647;28;20456;-54
2023/11/23 11:39:21;;;;;;;3.70;3.40;;;12.90;52.50;;;;;;5036753;28;20610;-49
2023/11/23 11:41:47;;;;;;;5.40;3.63;;;12.80;52.80;;;;;;5038865;28;20475;-49
2023/11/23 11:44:15;;;;;;;3.23;2.93;;;12.70;52.50;;;;;;5034852;28;20202;-51
2023/11/23 11:46:41;;;;;;;4.90;3.30;;;12.60;52.70;;;;;;5037883;28;20455;-53
2023/11/23 11:49:11;;;;;;;4.10;2.93;;;12.50;53.00;;;;;;5037960;28;20470;-53
2023/11/23 11:51:36;;;;;;;5.00;3.97;;;12.40;53.40;;;;;;5034542;28;20192;-51
2023/11/23 11:54:04;;;;;;;4.53;3.40;;;12.50;53.40;;;;;;5042963;28;20459;-52
2023/11/23 11:56:30;;;;;;;4.53;3.40;;;12.50;53.40;;;;;;5043801;28;20208;-55
2023/11/23 11:58:56;;;;;;;5.63;3.60;;;12.40;53.40;;;;;;5042469;28;20562;-54
2023/11/23 12:01:22;;;;;;;3.30;3.00;;;12.60;53.40;;;;;;5045068;28;20216;-53
2023/11/23 12:03:50;;;;;;;3.43;3.10;;;12.60;53.50;;;;;;5044696;28;20447;-49
2023/11/23 12:06:19;;;;;;;3.00;2.50;;;12.60;53.60;;;;;;5048287;28;20209;-49
2023/11/23 12:08:45;;;;;;;4.47;3.13;;;12.60;53.70;;;;;;5033225;28;20838;-53
2023/11/23 12:11:25;;;;;;;3.87;2.70;;;12.50;53.90;;;;;;5029986;28;20444;-54
2023/11/23 12:13:54;;;;;;;4.13;2.80;;;12.40;54.00;;;;;;5037721;28;20433;-53
2023/11/23 12:16:40;;;;;;;4.77;3.53;;;12.50;53.90;;;;;;5040885;28;21195;-52
2023/11/23 12:19:25;;;;;;;3.93;3.00;;;12.40;54.00;;;;;;5038019;28;20452;-49
2023/11/23 12:21:56;;;;;;;2.80;2.60;;;12.50;54.10;;;;;;5036672;28;20452;-50
2023/11/23 12:24:23;;;;;;;2.60;2.40;;;12.40;54.30;;;;;;5036146;28;20439;-49
2023/11/23 12:26:51;;;;;;;2.90;2.60;;;12.10;54.20;;;;;;5039278;28;20439;-53
2023/11/23 12:29:25;;;;;;;3.27;2.70;;;12.10;55.00;;;;;;5037795;28;20573;-52
2023/11/23 12:31:51;;;;;;;3.10;2.40;;;12.10;55.10;;;;;;5034134;28;20494;-49
2023/11/23 12:34:19;;;;;;;3.60;2.77;;;12.20;55.10;;;;;;5040394;28;20405;-52
2023/11/23 12:36:46;;;;;;;5.03;3.87;;;12.00;55.10;;;;;;5032727;28;20470;-51
2023/11/23 12:39:13;;;;;;;8.10;5.03;;;12.00;55.50;;;;;;5036664;28;20569;-50
2023/11/23 12:41:44;;;;;;;6.03;2.97;;;12.10;55.70;;;;;;5035457;28;20446;-55
2023/11/23 12:44:09;;;;;;;5.07;2.30;;;12.20;55.60;;;;;;5037018;28;20431;-51
2023/11/23 12:46:35;;;;;;;5.40;2.97;;;12.30;55.10;;;;;;5036033;28;20496;-55